HunTS Point — WDH2432 — position and weather

sailwx.info

Track history (hours):
 
Tides and Currents Weather Stations Pressure Air Temp Water Temp Dewpoint Dewpoint Depression Visibility Wind Speed Wind Dir Waves Ship Positions

HunTS Point

Owner: NEW YORK, CITY OF, BROOKLYN, NY. More information available from US FCC via Universal Licensing System and Coast Guard Vessel Documentation Center.

Last reported at 2018-Aug-14 18:22 UTC. Time now 2018-Aug-16 08:44 UTC.
Position N 40°44' W 073°58'.

Length 88 m; draft 4.3 m.

Type: Tanker. MMSI: 367597530.

Date/timePositionNaut miles runAvg speedWind from/ knotsBaromVisibWave heightAir tempDewpointWater temp
2018-Aug-14 18:22N 40°44' W 073°58'0 0.0
2018-Aug-14 14:42N 40°44' W 073°58'  
2018-Aug-07 21:51N 40°44' W 073°58'1 0.3
2018-Aug-07 18:45N 40°44' W 073°57'1 3.7
2018-Aug-07 18:30N 40°44' W 073°58'4 8.1
2018-Aug-07 18:00N 40°41' W 074°01'5 8.2
2018-Aug-07 17:22N 40°39' W 074°08'0 0.1
2018-Aug-07 16:53N 40°38' W 074°08'0 0.0
2018-Aug-07 15:56N 40°38' W 074°08'0 0.0
2018-Aug-07 15:30N 40°38' W 074°08'3 6.0
2018-Aug-07 15:00N 40°39' W 074°04'1 2.4
2018-Aug-07 14:30N 40°39' W 074°02'0 0.0
2018-Aug-07 14:00N 40°39' W 074°02'0 0.0
2018-Aug-07 13:30N 40°39' W 074°02'0 0.0
2018-Aug-07 13:00N 40°39' W 074°02'0 0.4
2018-Aug-07 12:30N 40°39' W 074°02'4 8.5
2018-Aug-07 12:00N 40°42' W 073°59'611.1
2018-Aug-07 11:30N 40°47' W 073°55'5 0.3
2018-Aug-06 16:25N 40°43' W 073°59'4 8.8
2018-Aug-06 15:58N 40°39' W 074°02'1 1.6
2018-Aug-06 15:30N 40°39' W 074°02'0 0.0
2018-Aug-06 14:56N 40°39' W 074°02'0 0.0
2018-Aug-06 14:30N 40°39' W 074°02'0 0.0
2018-Aug-06 13:56N 40°39' W 074°02'0 0.0
2018-Aug-06 13:30N 40°39' W 074°02'2 3.3
2018-Aug-06 13:01N 40°40' W 074°01'6 0.3
2018-Aug-05 16:08N 40°45' W 073°57'211.4
2018-Aug-05 15:56N 40°43' W 073°58'4 9.9
2018-Aug-05 15:31N 40°40' W 074°01'1 2.3
2018-Aug-05 15:00N 40°39' W 074°02'0 0.0
2018-Aug-05 14:00N 40°39' W 074°02'0 0.0
2018-Aug-05 13:31N 40°39' W 074°02'1 2.8
2018-Aug-05 13:00N 40°40' W 074°01'6 0.4
2018-Aug-04 22:00N 40°45' W 073°57'1 0.4
2018-Aug-04 18:49N 40°44' W 073°58'3 8.9
2018-Aug-04 18:29N 40°42' W 074°00'  
Track history (hours):
 
Tides and Currents Weather Stations Pressure Air Temp Water Temp Dewpoint Dewpoint Depression Visibility Wind Speed Wind Dir Waves Ship Positions

HunTS Point

Owner: NEW YORK, CITY OF, BROOKLYN, NY. More information available from US FCC via Universal Licensing System and Coast Guard Vessel Documentation Center.

Last reported at 2018-Aug-14 18:22 UTC. Time now 2018-Aug-16 08:44 UTC.
Position N 40°44' W 073°58'.

Length 88 m; draft 4.3 m.

Type: Tanker. MMSI: 367597530.

Date/timePositionNaut miles runAvg speedWind from/ knotsBaromVisibWave heightAir tempDewpointWater temp
2018-Aug-14 18:22N 40°44' W 073°58'0 0.0
2018-Aug-14 14:42N 40°44' W 073°58'  
2018-Aug-07 21:51N 40°44' W 073°58'1 0.3
2018-Aug-07 18:45N 40°44' W 073°57'1 3.7
2018-Aug-07 18:30N 40°44' W 073°58'4 8.1
2018-Aug-07 18:00N 40°41' W 074°01'5 8.2
2018-Aug-07 17:22N 40°39' W 074°08'0 0.1
2018-Aug-07 16:53N 40°38' W 074°08'0 0.0
2018-Aug-07 15:56N 40°38' W 074°08'0 0.0
2018-Aug-07 15:30N 40°38' W 074°08'3 6.0
2018-Aug-07 15:00N 40°39' W 074°04'1 2.4
2018-Aug-07 14:30N 40°39' W 074°02'0 0.0
2018-Aug-07 14:00N 40°39' W 074°02'0 0.0
2018-Aug-07 13:30N 40°39' W 074°02'0 0.0
2018-Aug-07 13:00N 40°39' W 074°02'0 0.4
2018-Aug-07 12:30N 40°39' W 074°02'4 8.5
2018-Aug-07 12:00N 40°42' W 073°59'611.1
2018-Aug-07 11:30N 40°47' W 073°55'5 0.3
2018-Aug-06 16:25N 40°43' W 073°59'4 8.8
2018-Aug-06 15:58N 40°39' W 074°02'1 1.6
2018-Aug-06 15:30N 40°39' W 074°02'0 0.0
2018-Aug-06 14:56N 40°39' W 074°02'0 0.0
2018-Aug-06 14:30N 40°39' W 074°02'0 0.0
2018-Aug-06 13:56N 40°39' W 074°02'0 0.0
2018-Aug-06 13:30N 40°39' W 074°02'2 3.3
2018-Aug-06 13:01N 40°40' W 074°01'6 0.3
2018-Aug-05 16:08N 40°45' W 073°57'211.4
2018-Aug-05 15:56N 40°43' W 073°58'4 9.9
2018-Aug-05 15:31N 40°40' W 074°01'1 2.3
2018-Aug-05 15:00N 40°39' W 074°02'0 0.0
2018-Aug-05 14:00N 40°39' W 074°02'0 0.0
2018-Aug-05 13:31N 40°39' W 074°02'1 2.8
2018-Aug-05 13:00N 40°40' W 074°01'6 0.4
2018-Aug-04 22:00N 40°45' W 073°57'1 0.4
2018-Aug-04 18:49N 40°44' W 073°58'3 8.9
2018-Aug-04 18:29N 40°42' W 074°00'  

Dump ship's entire track history